createdAt,value
2017-10-28T00:02:14.451Z,99284.25
2017-10-28T00:04:41.981Z,99300.16
2017-10-28T00:07:09.481Z,99298.41
2017-10-28T00:09:36.964Z,99297.27
2017-10-28T00:12:04.461Z,99291.03
2017-10-28T00:14:31.958Z,99290.27
2017-10-28T00:16:59.465Z,99287.58
2017-10-28T00:19:26.967Z,99286.93
2017-10-28T00:21:54.478Z,99286.18
2017-10-28T00:24:21.959Z,99296.23
2017-10-28T00:26:49.458Z,99292.04
2017-10-28T00:29:16.953Z,99287.47
2017-10-28T00:31:50.120Z,99280.45
2017-10-28T00:34:23.172Z,99284.76
2017-10-28T00:36:50.676Z,99280.61
2017-10-28T00:39:18.161Z,99286.38
2017-10-28T00:41:45.655Z,99288.17
2017-10-28T00:44:13.156Z,99284.42
2017-10-28T00:46:40.656Z,99279.95
2017-10-28T00:49:08.146Z,99285.86
2017-10-28T00:51:35.638Z,99284.53
2017-10-28T00:54:03.133Z,99294.44
2017-10-28T00:56:30.631Z,99295.38
2017-10-28T00:58:58.119Z,99293.10
2017-10-28T01:01:25.618Z,99287.03
2017-10-28T01:03:53.111Z,99276.16
2017-10-28T01:06:20.616Z,99262.64
2017-10-28T01:08:48.117Z,99251.09
2017-10-28T01:11:15.621Z,99256.55
2017-10-28T01:13:43.140Z,99252.70
2017-10-28T01:16:10.630Z,99252.47
2017-10-28T01:18:38.125Z,99248.11
2017-10-28T01:21:05.629Z,99244.91
2017-10-28T01:23:33.111Z,99243.28
2017-10-28T01:26:00.603Z,99242.48
2017-10-28T01:28:28.108Z,99243.63
2017-10-28T01:30:55.611Z,99236.23
2017-10-28T01:33:23.110Z,99233.97
2017-10-28T01:35:50.599Z,99223.24
2017-10-28T01:38:18.112Z,99226.20
2017-10-28T01:40:45.631Z,99221.00
2017-10-28T01:43:13.118Z,99219.66
2017-10-28T01:45:40.610Z,99217.69
2017-10-28T01:48:08.118Z,99204.36
2017-10-28T01:50:35.615Z,99202.00
2017-10-28T01:53:03.109Z,99195.28
2017-10-28T01:55:30.612Z,99195.36
2017-10-28T01:57:58.102Z,99189.42
2017-10-28T02:00:25.603Z,99186.44
2017-10-28T02:02:53.097Z,99193.16
2017-10-28T02:05:20.596Z,99184.95
2017-10-28T02:07:48.082Z,99182.56
2017-10-28T02:10:15.660Z,99186.09
2017-10-28T02:12:43.145Z,99181.83
2017-10-28T02:15:10.646Z,99191.66
2017-10-28T02:17:38.150Z,99197.55
2017-10-28T02:20:05.651Z,99193.28
2017-10-28T02:22:33.146Z,99178.25
2017-10-28T02:25:00.642Z,99177.30
2017-10-28T02:27:28.134Z,99182.78
2017-10-28T02:29:55.629Z,99182.48
2017-10-28T02:32:23.143Z,99190.22
2017-10-28T02:34:50.638Z,99188.00
2017-10-28T02:37:18.148Z,99181.49
2017-10-28T02:39:45.664Z,99184.59
2017-10-28T02:42:13.186Z,99183.31
2017-10-28T02:44:40.682Z,99183.61
2017-10-28T02:47:08.182Z,99178.20
2017-10-28T02:49:35.674Z,99176.50
2017-10-28T02:52:03.160Z,99173.50
2017-10-28T02:54:30.654Z,99166.11
2017-10-28T02:56:58.153Z,99166.23
2017-10-28T02:59:25.659Z,99158.38
2017-10-28T03:01:53.170Z,99159.42
2017-10-28T03:04:20.669Z,99153.67
2017-10-28T03:06:48.165Z,99154.69
2017-10-28T03:09:15.650Z,99155.25
2017-10-28T03:11:43.140Z,99158.66
2017-10-28T03:14:10.709Z,99148.37
2017-10-28T03:16:38.218Z,99146.45
2017-10-28T03:19:05.708Z,99140.16
2017-10-28T03:21:33.209Z,99131.41
2017-10-28T03:24:00.717Z,99146.91
2017-10-28T03:26:28.206Z,99149.07
2017-10-28T03:28:55.703Z,99145.94
2017-10-28T03:31:23.213Z,99142.23
2017-10-28T03:33:50.714Z,99136.36
2017-10-28T03:36:18.217Z,99126.64
2017-10-28T03:38:45.725Z,99118.84
2017-10-28T03:41:13.230Z,99111.27
2017-10-28T03:43:40.843Z,99115.89
2017-10-28T03:46:08.335Z,99115.23
2017-10-28T03:48:35.842Z,99114.42
2017-10-28T03:51:03.335Z,99106.98
2017-10-28T03:53:30.831Z,99107.09
2017-10-28T03:55:58.338Z,99097.62
2017-10-28T03:58:25.830Z,99101.20
2017-10-28T04:00:53.329Z,99107.64
2017-10-28T04:03:20.831Z,99103.75
2017-10-28T04:05:48.331Z,99099.20
2017-10-28T04:08:15.829Z,99103.97
2017-10-28T04:10:43.321Z,99109.34
2017-10-28T04:13:10.818Z,99105.80
2017-10-28T04:15:38.313Z,99103.47
2017-10-28T04:18:05.809Z,99103.64
2017-10-28T04:20:33.315Z,99091.81
2017-10-28T04:23:00.801Z,99090.45
2017-10-28T04:25:28.310Z,99092.46
2017-10-28T04:27:55.815Z,99093.13
2017-10-28T04:30:23.327Z,99096.23
2017-10-28T04:32:50.838Z,99092.84
2017-10-28T04:35:18.323Z,99095.83
2017-10-28T04:37:45.822Z,99094.80
2017-10-28T04:40:13.312Z,99084.30
2017-10-28T04:42:40.808Z,99075.46
2017-10-28T04:45:08.302Z,99072.30
2017-10-28T04:47:35.797Z,99068.88
2017-10-28T04:50:03.314Z,99073.92
2017-10-28T04:52:30.831Z,99064.87
2017-10-28T04:54:58.330Z,99067.70
2017-10-28T04:57:25.836Z,99071.26
2017-10-28T04:59:53.323Z,99056.63
2017-10-28T05:02:20.822Z,99045.55
2017-10-28T05:04:48.327Z,99047.64
2017-10-28T05:07:15.812Z,99052.48
2017-10-28T05:09:43.326Z,99049.31
2017-10-28T05:12:10.823Z,99048.41
2017-10-28T05:14:38.325Z,99036.96
2017-10-28T05:17:05.835Z,99048.50
2017-10-28T05:19:33.447Z,99059.20
2017-10-28T05:22:00.963Z,99056.58
2017-10-28T05:24:28.448Z,99055.08
2017-10-28T05:26:55.945Z,99039.59
2017-10-28T05:29:23.438Z,99037.55
2017-10-28T05:31:50.954Z,99034.94
2017-10-28T05:34:18.489Z,99032.13
2017-10-28T05:36:45.990Z,99047.49
2017-10-28T05:39:13.511Z,99052.48
2017-10-28T05:41:41.066Z,99051.88
2017-10-28T05:44:08.566Z,99047.28
2017-10-28T05:46:36.067Z,99051.95
2017-10-28T05:49:03.603Z,99048.13
2017-10-28T05:51:31.118Z,99055.00
2017-10-28T05:53:58.626Z,99064.33
2017-10-28T05:56:26.223Z,99068.73
2017-10-28T05:58:53.718Z,99069.52
2017-10-28T06:01:21.211Z,99080.41
2017-10-28T06:03:48.695Z,99080.25
2017-10-28T06:06:16.199Z,99068.27
2017-10-28T06:08:43.693Z,99062.19
2017-10-28T06:11:11.266Z,99067.19
2017-10-28T06:13:38.815Z,99076.33
2017-10-28T06:16:06.305Z,99075.78
2017-10-28T06:18:33.814Z,99075.97
2017-10-28T06:21:01.310Z,99071.80
2017-10-28T06:23:28.805Z,99064.99
2017-10-28T06:25:56.317Z,99061.09
2017-10-28T06:28:23.805Z,99052.14
2017-10-28T06:30:51.301Z,99057.86
2017-10-28T06:33:18.810Z,99045.13
2017-10-28T06:35:46.306Z,99047.83
2017-10-28T06:38:13.809Z,99037.66
2017-10-28T06:40:41.352Z,99045.81
2017-10-28T06:43:08.839Z,99053.45
2017-10-28T06:45:36.374Z,99052.03
2017-10-28T06:48:03.890Z,99050.12
2017-10-28T06:50:31.395Z,99049.13
2017-10-28T06:52:58.903Z,99047.53
2017-10-28T06:55:26.402Z,99051.88
2017-10-28T06:57:53.881Z,99051.14
2017-10-28T07:00:21.373Z,99042.75
2017-10-28T07:02:48.884Z,99044.61
2017-10-28T07:05:16.375Z,99047.47
2017-10-28T07:07:43.861Z,99055.39
2017-10-28T07:10:11.363Z,99066.66
2017-10-28T07:12:38.854Z,99059.24
2017-10-28T07:15:06.363Z,99058.41
2017-10-28T07:17:33.875Z,99045.35
2017-10-28T07:20:01.374Z,99052.77
2017-10-28T07:22:28.865Z,99042.63
2017-10-28T07:24:56.375Z,99039.06
2017-10-28T07:27:23.868Z,99040.52
2017-10-28T07:29:51.359Z,99047.23
2017-10-28T07:32:18.855Z,99041.55
2017-10-28T07:34:46.378Z,99035.50
2017-10-28T07:37:13.883Z,99035.02
2017-10-28T07:39:41.387Z,99029.38
2017-10-28T07:42:08.909Z,99030.03
2017-10-28T07:44:36.413Z,99031.38
2017-10-28T07:47:03.899Z,99036.31
2017-10-28T07:49:31.395Z,99044.72
2017-10-28T07:51:58.907Z,99054.44
2017-10-28T07:54:26.475Z,99046.00
2017-10-28T07:56:53.979Z,99058.59
2017-10-28T07:59:21.592Z,99061.48
2017-10-28T08:01:49.102Z,99056.00
2017-10-28T08:04:21.608Z,99050.13
2017-10-28T08:06:49.122Z,99049.42
2017-10-28T08:09:16.640Z,99042.82
2017-10-28T08:11:44.145Z,99033.34
2017-10-28T08:14:11.641Z,99034.16
2017-10-28T08:16:39.145Z,99036.53
2017-10-28T08:19:06.634Z,99039.44
2017-10-28T08:21:34.163Z,99038.91
2017-10-28T08:24:01.668Z,99037.80
2017-10-28T08:26:29.187Z,99032.05
2017-10-28T08:28:56.719Z,99035.28
2017-10-28T08:31:24.238Z,99027.85
2017-10-28T08:33:51.756Z,99012.98
2017-10-28T08:36:19.281Z,99003.63
2017-10-28T08:38:46.802Z,98999.61
2017-10-28T08:41:14.308Z,98995.39
2017-10-28T08:43:41.811Z,98986.47
2017-10-28T08:46:09.321Z,98985.59
2017-10-28T08:48:36.806Z,98976.11
2017-10-28T08:51:04.340Z,98958.03
2017-10-28T08:53:31.851Z,98942.45
2017-10-28T08:55:59.369Z,98938.09
2017-10-28T08:58:26.882Z,98944.38
2017-10-28T09:00:54.417Z,98937.98
2017-10-28T09:03:21.930Z,98933.55
2017-10-28T09:05:49.427Z,98921.65
2017-10-28T09:08:16.949Z,98914.17
2017-10-28T09:10:44.466Z,98906.83
2017-10-28T09:13:11.977Z,98906.01
2017-10-28T09:15:39.603Z,98901.33
2017-10-28T09:18:07.125Z,98898.06
2017-10-28T09:20:34.638Z,98925.33
2017-10-28T09:23:02.131Z,98920.20
2017-10-28T09:25:29.658Z,98924.63
2017-10-28T09:27:57.165Z,98907.52
2017-10-28T09:30:24.667Z,98903.10
2017-10-28T09:32:52.177Z,98908.80
2017-10-28T09:35:19.683Z,98924.09
2017-10-28T09:37:47.233Z,98931.80
2017-10-28T09:40:14.727Z,98925.34
2017-10-28T09:42:42.235Z,98923.34
2017-10-28T09:45:09.755Z,98915.78
2017-10-28T09:47:37.258Z,98905.86
2017-10-28T09:50:04.777Z,98896.89
2017-10-28T09:52:32.287Z,98908.79
2017-10-28T09:54:59.802Z,98899.13
2017-10-28T09:57:27.345Z,98884.77
2017-10-28T09:59:54.842Z,98881.73
2017-10-28T10:02:22.367Z,98889.53
2017-10-28T10:04:49.866Z,98880.28
2017-10-28T10:07:17.354Z,98882.24
2017-10-28T10:09:44.853Z,98874.70
2017-10-28T10:12:12.350Z,98861.14
2017-10-28T10:14:39.874Z,98870.65
2017-10-28T10:17:07.415Z,98899.64
2017-10-28T10:19:35.511Z,98898.01
2017-10-28T10:22:03.004Z,98904.66
2017-10-28T10:24:30.526Z,98896.77
2017-10-28T10:26:58.036Z,98897.81
2017-10-28T10:29:25.537Z,98898.89
2017-10-28T10:31:53.050Z,98900.81
2017-10-28T10:34:20.558Z,98886.55
2017-10-28T10:36:48.061Z,98873.57
2017-10-28T10:39:15.564Z,98860.66
2017-10-28T10:41:43.116Z,98866.03
2017-10-28T10:44:10.626Z,98854.66
2017-10-28T10:46:38.143Z,98851.53
2017-10-28T10:49:05.646Z,98842.55
2017-10-28T10:51:33.148Z,98843.82
2017-10-28T10:54:00.652Z,98830.98
2017-10-28T10:56:28.165Z,98821.05
2017-10-28T10:58:55.681Z,98826.02
2017-10-28T11:01:23.183Z,98827.50
2017-10-28T11:03:50.710Z,98825.84
2017-10-28T11:06:18.198Z,98827.73
2017-10-28T11:08:45.690Z,98818.55
2017-10-28T11:11:13.185Z,98822.84
2017-10-28T11:13:40.704Z,98824.81
2017-10-28T11:16:08.216Z,98824.86
2017-10-28T11:18:35.717Z,98832.02
2017-10-28T11:21:03.213Z,98826.48
2017-10-28T11:23:31.106Z,98828.85
2017-10-28T11:25:58.625Z,98822.95
2017-10-28T11:28:26.113Z,98821.05
2017-10-28T11:30:53.642Z,98818.33
2017-10-28T11:33:21.129Z,98821.63
2017-10-28T11:35:48.642Z,98812.26
2017-10-28T11:38:17.125Z,98791.99
2017-10-28T11:40:44.643Z,98780.15
2017-10-28T11:43:12.211Z,98766.17
2017-10-28T11:45:39.813Z,98764.23
2017-10-28T11:48:07.294Z,98750.89
2017-10-28T11:50:34.809Z,98742.92
2017-10-28T11:53:02.330Z,98735.76
2017-10-28T11:55:29.830Z,98738.44
2017-10-28T11:57:57.329Z,98735.67
2017-10-28T12:00:24.838Z,98728.78
2017-10-28T12:02:52.337Z,98728.25
2017-10-28T12:05:19.837Z,98710.66
2017-10-28T12:07:47.333Z,98718.53
2017-10-28T12:10:14.867Z,98721.28
2017-10-28T12:12:42.356Z,98706.34
2017-10-28T12:15:09.866Z,98703.89
2017-10-28T12:17:37.369Z,98715.13
2017-10-28T12:20:04.877Z,98704.95
2017-10-28T12:22:32.380Z,98701.73
2017-10-28T12:24:59.875Z,98714.50
2017-10-28T12:27:27.378Z,98723.90
2017-10-28T12:29:54.871Z,98715.27
2017-10-28T12:32:22.383Z,98710.79
2017-10-28T12:34:49.949Z,98722.50
2017-10-28T12:37:17.468Z,98704.36
2017-10-28T12:39:45.009Z,98688.23
2017-10-28T12:42:12.601Z,98694.77
2017-10-28T12:44:40.110Z,98711.41
2017-10-28T12:47:07.603Z,98700.42
2017-10-28T12:49:35.136Z,98704.66
2017-10-28T12:52:02.651Z,98702.44
2017-10-28T12:54:30.154Z,98685.02
2017-10-28T12:56:57.745Z,98687.11
2017-10-28T12:59:25.262Z,98687.83
2017-10-28T13:01:52.766Z,98683.42
2017-10-28T13:04:20.301Z,98682.11
2017-10-28T13:06:47.807Z,98680.88
2017-10-28T13:09:15.320Z,98679.56
2017-10-28T13:11:42.834Z,98685.45
2017-10-28T13:14:10.348Z,98697.38
2017-10-28T13:16:37.860Z,98704.55
2017-10-28T13:19:05.371Z,98687.09
2017-10-28T13:21:32.896Z,98681.36
2017-10-28T13:24:00.401Z,98671.83
2017-10-28T13:26:27.936Z,98654.66
2017-10-28T13:28:55.443Z,98649.08
2017-10-28T13:31:22.936Z,98636.53
2017-10-28T13:33:50.453Z,98634.50
2017-10-28T13:36:17.973Z,98609.47
2017-10-28T13:38:45.474Z,98615.02
2017-10-28T13:41:12.974Z,98608.88
2017-10-28T13:43:40.493Z,98614.14
2017-10-28T13:46:08.030Z,98626.10
2017-10-28T13:48:35.525Z,98629.69
2017-10-28T13:51:03.028Z,98635.02
2017-10-28T13:53:30.526Z,98637.03
2017-10-28T13:55:58.039Z,98626.52
2017-10-28T13:58:25.561Z,98618.35
2017-10-28T14:00:53.074Z,98622.70
2017-10-28T14:03:20.578Z,98615.02
2017-10-28T14:05:48.104Z,98604.30
2017-10-28T14:08:15.634Z,98609.09
2017-10-28T14:10:43.167Z,98604.12
2017-10-28T14:13:10.675Z,98610.05
2017-10-28T14:15:38.175Z,98615.80
2017-10-28T14:18:05.678Z,98609.61
2017-10-28T14:20:33.177Z,98606.36
2017-10-28T14:23:00.675Z,98585.44
2017-10-28T14:25:28.174Z,98585.39
2017-10-28T14:27:55.699Z,98583.20
2017-10-28T14:30:23.235Z,98580.34
2017-10-28T14:32:50.898Z,98571.69
2017-10-28T14:35:18.421Z,98564.49
2017-10-28T14:37:45.924Z,98551.33
2017-10-28T14:40:13.454Z,98557.34
2017-10-28T14:42:40.963Z,98551.80
2017-10-28T14:45:08.477Z,98543.44
2017-10-28T14:47:35.991Z,98542.16
2017-10-28T14:50:03.609Z,98539.89
2017-10-28T14:52:31.167Z,98538.96
2017-10-28T14:54:58.731Z,98528.91
2017-10-28T14:57:26.262Z,98538.58
2017-10-28T14:59:53.761Z,98528.44
2017-10-28T15:02:21.253Z,98537.70
2017-10-28T15:04:48.760Z,98541.33
2017-10-28T15:07:16.289Z,98551.84
2017-10-28T15:09:43.800Z,98547.51
2017-10-28T15:12:11.307Z,98543.36
2017-10-28T15:14:38.803Z,98541.02
2017-10-28T15:17:06.344Z,98555.23
2017-10-28T15:19:33.850Z,98560.88
2017-10-28T15:22:01.354Z,98566.05
2017-10-28T15:24:28.862Z,98578.75
2017-10-28T15:26:56.385Z,98580.53
2017-10-28T15:29:23.886Z,98579.16
2017-10-28T15:31:51.418Z,98571.97
2017-10-28T15:34:18.917Z,98555.20
2017-10-28T15:36:46.430Z,98550.94
2017-10-28T15:39:13.941Z,98523.94
2017-10-28T15:41:41.447Z,98516.92
2017-10-28T15:44:08.963Z,98525.16
2017-10-28T15:46:36.479Z,98517.64
2017-10-28T15:49:04.007Z,98502.65
2017-10-28T15:51:31.527Z,98510.50
2017-10-28T15:56:25.821Z,98525.13
2017-10-28T15:58:53.331Z,98520.02
2017-10-28T16:01:20.823Z,98522.34
2017-10-28T16:03:48.333Z,98517.20
2017-10-28T16:06:15.819Z,98518.50
2017-10-28T16:08:43.320Z,98513.52
2017-10-28T16:11:10.813Z,98515.44
2017-10-28T16:13:38.365Z,98522.87
2017-10-28T16:16:05.871Z,98514.97
2017-10-28T16:18:33.366Z,98495.31
2017-10-28T16:21:00.868Z,98492.95
2017-10-28T16:23:28.388Z,98507.61
2017-10-28T16:25:55.881Z,98517.08
2017-10-28T16:28:23.388Z,98504.78
2017-10-28T16:30:50.920Z,98508.64
2017-10-28T16:33:18.407Z,98504.78
2017-10-28T16:35:45.905Z,98488.48
2017-10-28T16:38:13.431Z,98498.47
2017-10-28T16:40:40.965Z,98507.63
2017-10-28T16:43:08.492Z,98500.28
2017-10-28T16:45:35.990Z,98506.69
2017-10-28T16:48:03.486Z,98506.16
2017-10-28T16:50:30.980Z,98509.09
2017-10-28T16:52:58.477Z,98505.88
2017-10-28T16:55:25.990Z,98494.84
2017-10-28T16:57:53.509Z,98490.47
2017-10-28T17:00:20.993Z,98491.05
2017-10-28T17:02:48.621Z,98482.25
2017-10-28T17:05:16.154Z,98462.98
2017-10-28T17:07:43.689Z,98459.77
2017-10-28T17:10:11.279Z,98452.84
2017-10-28T17:12:38.860Z,98446.00
2017-10-28T17:15:06.366Z,98446.00
2017-10-28T17:17:33.885Z,98444.19
2017-10-28T17:20:01.423Z,98451.56
2017-10-28T17:22:28.943Z,98461.35
2017-10-28T17:24:56.439Z,98474.92
2017-10-28T17:27:23.931Z,98462.79
2017-10-28T17:29:51.424Z,98454.50
2017-10-28T17:32:18.927Z,98453.85
2017-10-28T17:34:46.469Z,98452.33
2017-10-28T17:37:13.986Z,98438.23
2017-10-28T17:39:41.475Z,98445.03
2017-10-28T17:42:09.024Z,98434.99
2017-10-28T17:44:36.528Z,98432.88
2017-10-28T17:47:04.077Z,98451.72
2017-10-28T17:49:31.587Z,98440.66
2017-10-28T17:51:59.092Z,98435.50
2017-10-28T17:54:26.591Z,98441.33
2017-10-28T17:56:54.957Z,98433.28
2017-10-28T17:59:22.482Z,98442.00
2017-10-28T18:01:50.023Z,98449.42
2017-10-28T18:04:17.509Z,98466.84
2017-10-28T18:06:45.019Z,98471.37
2017-10-28T18:09:12.516Z,98474.31
2017-10-28T18:11:40.026Z,98468.61
2017-10-28T18:14:07.560Z,98484.34
2017-10-28T18:16:35.092Z,98466.20
2017-10-28T18:19:02.613Z,98473.16
2017-10-28T18:21:30.113Z,98466.91
2017-10-28T18:23:57.614Z,98462.60
2017-10-28T18:26:25.125Z,98462.24
2017-10-28T18:28:52.635Z,98457.48
2017-10-28T18:31:20.173Z,98469.83
2017-10-28T18:33:47.681Z,98462.43
2017-10-28T18:36:15.209Z,98457.62
2017-10-28T18:38:42.732Z,98454.77
2017-10-28T18:41:10.229Z,98453.48
2017-10-28T18:43:38.099Z,98462.63
2017-10-28T18:46:05.641Z,98453.70
2017-10-28T18:48:33.153Z,98451.84
2017-10-28T18:51:00.639Z,98430.04
2017-10-28T18:53:28.135Z,98438.70
2017-10-28T18:55:55.663Z,98418.20
2017-10-28T18:58:23.234Z,98418.37
2017-10-28T19:00:50.743Z,98413.09
2017-10-28T19:03:18.289Z,98407.31
2017-10-28T19:05:45.786Z,98398.70
2017-10-28T19:08:13.278Z,98394.83
2017-10-28T19:10:40.802Z,98389.43
2017-10-28T19:13:08.361Z,98394.39
2017-10-28T19:15:35.881Z,98400.86
2017-10-28T19:18:03.427Z,98399.52
2017-10-28T19:20:30.920Z,98392.27
2017-10-28T19:22:58.425Z,98383.44
2017-10-28T19:25:25.940Z,98382.55
2017-10-28T19:27:53.445Z,98383.64
2017-10-28T19:30:20.970Z,98371.36
2017-10-28T19:32:48.480Z,98372.27
2017-10-28T19:35:16.032Z,98369.19
2017-10-28T19:37:43.544Z,98366.12
2017-10-28T19:40:11.049Z,98352.13
2017-10-28T19:42:38.613Z,98352.91
2017-10-28T19:45:06.210Z,98349.32
2017-10-28T19:47:33.723Z,98344.77
2017-10-28T19:50:01.294Z,98339.97
2017-10-28T19:52:28.819Z,98338.11
2017-10-28T19:54:56.367Z,98329.23
2017-10-28T19:57:23.912Z,98323.60
2017-10-28T19:59:51.433Z,98313.63
2017-10-28T20:02:19.045Z,98322.45
2017-10-28T20:04:46.606Z,98310.98
2017-10-28T20:07:14.127Z,98311.72
2017-10-28T20:09:41.669Z,98310.13
2017-10-28T20:12:09.181Z,98302.88
2017-10-28T20:14:36.772Z,98299.47
2017-10-28T20:17:04.311Z,98294.50
2017-10-28T20:19:31.860Z,98291.61
2017-10-28T20:21:59.392Z,98287.91
2017-10-28T20:24:26.933Z,98290.76
2017-10-28T20:26:54.473Z,98288.25
2017-10-28T20:29:22.020Z,98295.33
2017-10-28T20:31:49.581Z,98267.77
2017-10-28T20:34:17.152Z,98267.62
2017-10-28T20:36:44.722Z,98265.39
2017-10-28T20:39:12.281Z,98260.91
2017-10-28T20:41:39.819Z,98251.36
2017-10-28T20:44:07.348Z,98245.60
2017-10-28T20:46:34.890Z,98239.58
2017-10-28T20:49:02.431Z,98236.34
2017-10-28T20:51:30.011Z,98233.39
2017-10-28T20:53:57.559Z,98225.81
2017-10-28T20:56:25.166Z,98235.93
2017-10-28T20:58:52.691Z,98227.39
2017-10-28T21:01:20.213Z,98226.05
2017-10-28T21:03:47.733Z,98220.08
2017-10-28T21:06:15.288Z,98221.14
2017-10-28T21:08:42.802Z,98213.27
2017-10-28T21:11:10.334Z,98208.83
2017-10-28T21:13:37.852Z,98205.39
2017-10-28T21:16:05.363Z,98191.27
2017-10-28T21:18:32.899Z,98181.42
2017-10-28T21:21:00.461Z,98181.13
2017-10-28T21:23:27.986Z,98178.42
2017-10-28T21:25:55.534Z,98175.68
2017-10-28T21:28:23.068Z,98181.76
2017-10-28T21:30:50.619Z,98182.52
2017-10-28T21:33:18.213Z,98169.52
2017-10-28T21:35:45.708Z,98163.69
2017-10-28T21:38:13.252Z,98165.03
2017-10-28T21:40:40.765Z,98170.78
2017-10-28T21:43:08.306Z,98176.26
2017-10-28T21:45:35.844Z,98181.23
2017-10-28T21:48:03.366Z,98180.39
2017-10-28T21:50:30.901Z,98180.11
2017-10-28T21:52:58.432Z,98178.47
2017-10-28T21:55:25.979Z,98175.88
2017-10-28T21:57:53.480Z,98177.28
2017-10-28T22:00:20.989Z,98182.28
2017-10-28T22:02:48.478Z,98169.87
2017-10-28T22:05:15.973Z,98169.00
2017-10-28T22:07:43.487Z,98155.91
2017-10-28T22:10:11.004Z,98144.84
2017-10-28T22:12:38.502Z,98146.85
2017-10-28T22:15:06.122Z,98133.90
2017-10-28T22:17:33.652Z,98128.53
2017-10-28T22:20:01.146Z,98120.95
2017-10-28T22:22:28.661Z,98118.11
2017-10-28T22:24:56.161Z,98126.75
2017-10-28T22:27:23.655Z,98121.81
2017-10-28T22:29:51.153Z,98123.67
2017-10-28T22:32:18.672Z,98119.46
2017-10-28T22:34:46.181Z,98107.34
2017-10-28T22:37:13.657Z,98092.51
2017-10-28T22:39:41.161Z,98093.59
2017-10-28T22:42:08.682Z,98091.40
2017-10-28T22:44:36.169Z,98099.62
2017-10-28T22:47:03.667Z,98094.86
2017-10-28T22:49:31.207Z,98095.97
2017-10-28T22:51:58.720Z,98093.24
2017-10-28T22:54:26.225Z,98077.91
2017-10-28T22:56:53.734Z,98080.61
2017-10-28T22:59:21.226Z,98065.59
2017-10-28T23:01:48.738Z,98071.39
2017-10-28T23:04:16.245Z,98056.69
2017-10-28T23:06:43.729Z,98055.88
2017-10-28T23:09:11.243Z,98052.27
2017-10-28T23:11:38.772Z,98038.05
2017-10-28T23:14:06.277Z,98034.17
2017-10-28T23:16:33.791Z,98013.97
2017-10-28T23:19:01.291Z,98024.19
2017-10-28T23:21:28.810Z,98013.34
2017-10-28T23:23:56.305Z,98009.66
2017-10-28T23:26:23.801Z,98018.91
2017-10-28T23:28:51.289Z,98002.01
2017-10-28T23:31:18.773Z,98002.41
2017-10-28T23:33:46.253Z,97997.45
2017-10-28T23:36:13.741Z,98004.36
2017-10-28T23:38:41.232Z,98006.92
2017-10-28T23:41:08.721Z,98010.41
2017-10-28T23:43:36.216Z,97975.33
2017-10-28T23:46:03.706Z,97973.57
2017-10-28T23:48:31.235Z,97972.92
2017-10-28T23:50:58.744Z,97963.78
2017-10-28T23:53:26.229Z,97957.86
2017-10-28T23:55:53.708Z,97948.38
2017-10-28T23:58:21.190Z,97942.28
